sensor_id;sensor_type;location;lat;lon;timestamp;pressure;altitude;pressure_sealevel;temperature;humidity
10470;BME280;5282;47.052;15.458;2022-09-01T00:02:00;97690.00;;;16.13;100.00
10470;BME280;5282;47.052;15.458;2022-09-01T00:04:37;97684.19;;;15.87;100.00
10470;BME280;5282;47.052;15.458;2022-09-01T00:07:07;97684.63;;;15.91;100.00
10470;BME280;5282;47.052;15.458;2022-09-01T00:09:47;97685.78;;;16.03;100.00
10470;BME280;5282;47.052;15.458;2022-09-01T00:12:14;97682.41;;;16.01;100.00
10470;BME280;5282;47.052;15.458;2022-09-01T00:15:02;97683.84;;;15.97;100.00
10470;BME280;5282;47.052;15.458;2022-09-01T00:17:38;97682.16;;;15.96;100.00
10470;BME280;5282;47.052;15.458;2022-09-01T00:20:21;97678.19;;;15.92;100.00
10470;BME280;5282;47.052;15.458;2022-09-01T00:22:55;97680.63;;;15.87;100.00
10470;BME280;5282;47.052;15.458;2022-09-01T00:25:22;97685.00;;;15.60;100.00
10470;BME280;5282;47.052;15.458;2022-09-01T00:28:00;97681.94;;;15.48;100.00
10470;BME280;5282;47.052;15.458;2022-09-01T00:30:36;97681.84;;;15.34;100.00
10470;BME280;5282;47.052;15.458;2022-09-01T00:33:05;97684.09;;;15.52;100.00
10470;BME280;5282;47.052;15.458;2022-09-01T00:35:35;97687.13;;;15.64;100.00
10470;BME280;5282;47.052;15.458;2022-09-01T00:38:04;97682.88;;;15.55;100.00
10470;BME280;5282;47.052;15.458;2022-09-01T00:40:35;97675.63;;;15.40;100.00
10470;BME280;5282;47.052;15.458;2022-09-01T00:43:13;97683.84;;;15.47;100.00
10470;BME280;5282;47.052;15.458;2022-09-01T00:45:42;97690.84;;;15.63;100.00
10470;BME280;5282;47.052;15.458;2022-09-01T00:48:09;97681.84;;;15.56;100.00
10470;BME280;5282;47.052;15.458;2022-09-01T00:50:41;97682.97;;;15.68;100.00
10470;BME280;5282;47.052;15.458;2022-09-01T00:53:09;97689.19;;;15.62;100.00
10470;BME280;5282;47.052;15.458;2022-09-01T00:55:36;97683.41;;;15.72;100.00
10470;BME280;5282;47.052;15.458;2022-09-01T00:58:05;97694.28;;;15.72;100.00
10470;BME280;5282;47.052;15.458;2022-09-01T01:00:37;97679.06;;;15.78;100.00
10470;BME280;5282;47.052;15.458;2022-09-01T01:03:08;97677.41;;;15.77;100.00
10470;BME280;5282;47.052;15.458;2022-09-01T01:05:41;97669.63;;;15.73;100.00
10470;BME280;5282;47.052;15.458;2022-09-01T01:08:21;97677.41;;;15.77;100.00
10470;BME280;5282;47.052;15.458;2022-09-01T01:10:59;97684.19;;;15.66;100.00
10470;BME280;5282;47.052;15.458;2022-09-01T01:13:47;97683.81;;;15.69;100.00
10470;BME280;5282;47.052;15.458;2022-09-01T01:16:16;97674.84;;;15.68;100.00
10470;BME280;5282;47.052;15.458;2022-09-01T01:18:44;97667.13;;;15.72;100.00
10470;BME280;5282;47.052;15.458;2022-09-01T01:21:17;97674.84;;;15.68;100.00
10470;BME280;5282;47.052;15.458;2022-09-01T01:26:43;97679.84;;;15.71;100.00
10470;BME280;5282;47.052;15.458;2022-09-01T01:29:21;97678.75;;;15.66;100.00
10470;BME280;5282;47.052;15.458;2022-09-01T01:31:54;97679.22;;;15.69;100.00
10470;BME280;5282;47.052;15.458;2022-09-01T01:34:22;97679.69;;;15.73;100.00
10470;BME280;5282;47.052;15.458;2022-09-01T01:36:50;97673.75;;;15.63;100.00
10470;BME280;5282;47.052;15.458;2022-09-01T01:39:23;97683.59;;;15.70;100.00
10470;BME280;5282;47.052;15.458;2022-09-01T01:41:53;97671.53;;;15.73;100.00
10470;BME280;5282;47.052;15.458;2022-09-01T01:44:24;97675.38;;;15.57;100.00
10470;BME280;5282;47.052;15.458;2022-09-01T01:46:54;97672.13;;;15.68;100.00
10470;BME280;5282;47.052;15.458;2022-09-01T01:49:25;97670.44;;;15.67;100.00
10470;BME280;5282;47.052;15.458;2022-09-01T01:51:56;97679.41;;;15.68;100.00
10470;BME280;5282;47.052;15.458;2022-09-01T01:54:26;97675.38;;;15.57;100.00
10470;BME280;5282;47.052;15.458;2022-09-01T01:57:00;97676.03;;;15.37;100.00
10470;BME280;5282;47.052;15.458;2022-09-01T01:59:30;97678.63;;;15.46;100.00
10470;BME280;5282;47.052;15.458;2022-09-01T02:02:02;97672.91;;;15.62;100.00
10470;BME280;5282;47.052;15.458;2022-09-01T02:04:35;97674.63;;;15.70;100.00
10470;BME280;5282;47.052;15.458;2022-09-01T02:07:08;97671.91;;;15.70;100.00
10470;BME280;5282;47.052;15.458;2022-09-01T02:09:42;97674.91;;;15.75;100.00
10470;BME280;5282;47.052;15.458;2022-09-01T02:12:15;97666.28;;;15.71;100.00
10470;BME280;5282;47.052;15.458;2022-09-01T02:14:48;97673.34;;;15.66;100.00
10470;BME280;5282;47.052;15.458;2022-09-01T02:17:27;97677.00;;;15.51;100.00
10470;BME280;5282;47.052;15.458;2022-09-01T02:19:57;97677.53;;;15.40;100.00
10470;BME280;5282;47.052;15.458;2022-09-01T02:22:33;97671.63;;;15.58;100.00
10470;BME280;5282;47.052;15.458;2022-09-01T02:25:15;97672.13;;;15.68;100.00
10470;BME280;5282;47.052;15.458;2022-09-01T02:28:04;97674.41;;;15.71;100.00
10470;BME280;5282;47.052;15.458;2022-09-01T02:30:35;97678.81;;;15.72;100.00
10470;BME280;5282;47.052;15.458;2022-09-01T02:33:25;97670.78;;;15.57;100.00
10470;BME280;5282;47.052;15.458;2022-09-01T02:35:58;97670.44;;;15.67;100.00
10470;BME280;5282;47.052;15.458;2022-09-01T02:38:31;97671.91;;;15.70;100.00
10470;BME280;5282;47.052;15.458;2022-09-01T02:41:03;97668.13;;;15.64;100.00
10470;BME280;5282;47.052;15.458;2022-09-01T02:43:52;97668.56;;;15.68;100.00
10470;BME280;5282;47.052;15.458;2022-09-01T02:46:40;97654.97;;;15.68;100.00
10470;BME280;5282;47.052;15.458;2022-09-01T02:49:11;97668.56;;;15.68;100.00
10470;BME280;5282;47.052;15.458;2022-09-01T02:51:58;97661.28;;;15.68;100.00
10470;BME280;5282;47.052;15.458;2022-09-01T02:54:37;97665.06;;;15.74;100.00
10470;BME280;5282;47.052;15.458;2022-09-01T02:57:06;97672.78;;;15.49;100.00
10470;BME280;5282;47.052;15.458;2022-09-01T02:59:39;97663.66;;;15.56;100.00
10470;BME280;5282;47.052;15.458;2022-09-01T03:02:07;97652.88;;;15.63;100.00
10470;BME280;5282;47.052;15.458;2022-09-01T03:04:35;97662.41;;;15.59;100.00
10470;BME280;5282;47.052;15.458;2022-09-01T03:07:13;97668.00;;;15.51;100.00
10470;BME280;5282;47.052;15.458;2022-09-01T03:09:52;97665.41;;;15.64;100.00
10470;BME280;5282;47.052;15.458;2022-09-01T03:12:23;97664.91;;;15.54;100.00
10470;BME280;5282;47.052;15.458;2022-09-01T03:15:11;97660.34;;;15.61;100.00
10470;BME280;5282;47.052;15.458;2022-09-01T03:17:41;97649.31;;;15.63;100.00
10470;BME280;5282;47.052;15.458;2022-09-01T03:20:23;97657.16;;;15.51;100.00
10470;BME280;5282;47.052;15.458;2022-09-01T03:23:00;97654.69;;;15.56;100.00
10470;BME280;5282;47.052;15.458;2022-09-01T03:25:32;97656.13;;;15.52;100.00
10470;BME280;5282;47.052;15.458;2022-09-01T03:28:00;97648.78;;;15.46;100.00
10470;BME280;5282;47.052;15.458;2022-09-01T03:30:31;97652.75;;;15.50;100.00
10470;BME280;5282;47.052;15.458;2022-09-01T03:33:06;97642.41;;;15.60;100.00
10470;BME280;5282;47.052;15.458;2022-09-01T03:35:51;97637.78;;;15.54;100.00
10470;BME280;5282;47.052;15.458;2022-09-01T03:38:18;97635.28;;;15.59;100.00
10470;BME280;5282;47.052;15.458;2022-09-01T03:40:47;97638.25;;;15.64;100.00
10470;BME280;5282;47.052;15.458;2022-09-01T03:43:16;97639.69;;;15.60;100.00
10470;BME280;5282;47.052;15.458;2022-09-01T03:45:45;97637.44;;;15.64;100.00
10470;BME280;5282;47.052;15.458;2022-09-01T03:48:12;97640.38;;;15.40;100.00
10470;BME280;5282;47.052;15.458;2022-09-01T03:50:42;97641.91;;;15.50;100.00
10470;BME280;5282;47.052;15.458;2022-09-01T03:53:14;97641.25;;;15.48;100.00
10470;BME280;5282;47.052;15.458;2022-09-01T03:55:43;97639.34;;;15.41;100.00
10470;BME280;5282;47.052;15.458;2022-09-01T03:58:12;97633.38;;;15.53;100.00
10470;BME280;5282;47.052;15.458;2022-09-01T04:00:47;97646.88;;;15.46;100.00
10470;BME280;5282;47.052;15.458;2022-09-01T04:03:17;97647.31;;;15.50;100.00
10470;BME280;5282;47.052;15.458;2022-09-01T04:05:52;97640.72;;;15.59;100.00
10470;BME280;5282;47.052;15.458;2022-09-01T04:08:20;97638.41;;;15.56;100.00
10470;BME280;5282;47.052;15.458;2022-09-01T04:10:54;97636.28;;;15.51;100.00
10470;BME280;5282;47.052;15.458;2022-09-01T04:13:26;97631.41;;;15.40;100.00
10470;BME280;5282;47.052;15.458;2022-09-01T04:15:56;97636.63;;;15.41;100.00
10470;BME280;5282;47.052;15.458;2022-09-01T04:18:24;97635.09;;;15.32;100.00
10470;BME280;5282;47.052;15.458;2022-09-01T04:20:52;97636.84;;;15.18;100.00
10470;BME280;5282;47.052;15.458;2022-09-01T04:23:21;97631.22;;;15.20;100.00
10470;BME280;5282;47.052;15.458;2022-09-01T04:25:54;97634.06;;;15.33;100.00
10470;BME280;5282;47.052;15.458;2022-09-01T04:28:23;97634.31;;;15.17;100.00
10470;BME280;5282;47.052;15.458;2022-09-01T04:30:56;97629.75;;;15.17;100.00
10470;BME280;5282;47.052;15.458;2022-09-01T04:33:31;97626.84;;;15.19;100.00
10470;BME280;5282;47.052;15.458;2022-09-01T04:36:03;97629.56;;;15.19;100.00
10470;BME280;5282;47.052;15.458;2022-09-01T04:38:30;97626.69;;;15.27;100.00
10470;BME280;5282;47.052;15.458;2022-09-01T04:41:06;97626.47;;;15.22;100.00
10470;BME280;5282;47.052;15.458;2022-09-01T04:43:34;97625.00;;;15.26;100.00
10470;BME280;5282;47.052;15.458;2022-09-01T04:46:03;97622.72;;;15.23;100.00
10470;BME280;5282;47.052;15.458;2022-09-01T04:48:30;97618.06;;;15.17;100.00
10470;BME280;5282;47.052;15.458;2022-09-01T04:50:59;97619.50;;;15.13;100.00
10470;BME280;5282;47.052;15.458;2022-09-01T04:53:28;97620.31;;;15.13;100.00
10470;BME280;5282;47.052;15.458;2022-09-01T04:56:02;97612.31;;;15.26;100.00
10470;BME280;5282;47.052;15.458;2022-09-01T04:58:30;97617.66;;;15.20;100.00
10470;BME280;5282;47.052;15.458;2022-09-01T05:01:12;97612.38;;;15.11;100.00
10470;BME280;5282;47.052;15.458;2022-09-01T05:03:41;97613.53;;;15.02;100.00
10470;BME280;5282;47.052;15.458;2022-09-01T05:06:12;97622.66;;;15.16;100.00
10470;BME280;5282;47.052;15.458;2022-09-01T05:08:39;97614.97;;;15.20;100.00
10470;BME280;5282;47.052;15.458;2022-09-01T05:11:06;97622.00;;;15.14;100.00
10470;BME280;5282;47.052;15.458;2022-09-01T05:13:33;97618.28;;;14.93;100.00
10470;BME280;5282;47.052;15.458;2022-09-01T05:16:06;97617.78;;;14.90;100.00
10470;BME280;5282;47.052;15.458;2022-09-01T05:18:37;97621.94;;;15.07;100.00
10470;BME280;5282;47.052;15.458;2022-09-01T05:21:06;97620.63;;;15.03;100.00
10470;BME280;5282;47.052;15.458;2022-09-01T05:23:34;97624.38;;;15.02;100.00
10470;BME280;5282;47.052;15.458;2022-09-01T05:26:02;97621.56;;;15.10;100.00
10470;BME280;5282;47.052;15.458;2022-09-01T05:28:39;97616.00;;;14.97;100.00
10470;BME280;5282;47.052;15.458;2022-09-01T05:31:10;97618.44;;;15.14;100.00
10470;BME280;5282;47.052;15.458;2022-09-01T05:33:38;97618.06;;;14.95;100.00
10470;BME280;5282;47.052;15.458;2022-09-01T05:36:11;97613.66;;;14.94;100.00
10470;BME280;5282;47.052;15.458;2022-09-01T05:38:39;97611.91;;;14.86;100.00
10470;BME280;5282;47.052;15.458;2022-09-01T05:41:09;97621.44;;;14.97;100.00
10470;BME280;5282;47.052;15.458;2022-09-01T05:43:40;97608.63;;;14.91;100.00
10470;BME280;5282;47.052;15.458;2022-09-01T05:46:19;97610.44;;;14.84;100.00
10470;BME280;5282;47.052;15.458;2022-09-01T05:48:49;97599.53;;;14.77;100.00
10470;BME280;5282;47.052;15.458;2022-09-01T05:51:19;97607.16;;;14.88;100.00
10470;BME280;5282;47.052;15.458;2022-09-01T05:53:47;97603.09;;;14.99;100.00
10470;BME280;5282;47.052;15.458;2022-09-01T05:56:16;97605.53;;;14.94;100.00
10470;BME280;5282;47.052;15.458;2022-09-01T05:58:44;97606.91;;;15.05;100.00
10470;BME280;5282;47.052;15.458;2022-09-01T06:01:16;97608.38;;;15.07;100.00
10470;BME280;5282;47.052;15.458;2022-09-01T06:03:49;97610.84;;;15.24;100.00
10470;BME280;5282;47.052;15.458;2022-09-01T06:06:20;97608.13;;;15.24;100.00
10470;BME280;5282;47.052;15.458;2022-09-01T06:08:47;97613.84;;;15.36;100.00
10470;BME280;5282;47.052;15.458;2022-09-01T06:11:15;97614.09;;;15.41;100.00
10470;BME280;5282;47.052;15.458;2022-09-01T06:13:42;97613.44;;;15.39;100.00
10470;BME280;5282;47.052;15.458;2022-09-01T06:16:13;97620.00;;;15.23;100.00
10470;BME280;5282;47.052;15.458;2022-09-01T06:18:41;97619.31;;;15.42;100.00
10470;BME280;5282;47.052;15.458;2022-09-01T06:21:11;97620.63;;;15.53;100.00
10470;BME280;5282;47.052;15.458;2022-09-01T06:23:40;97617.09;;;15.53;100.00
10470;BME280;5282;47.052;15.458;2022-09-01T06:26:15;97615.72;;;15.64;100.00
10470;BME280;5282;47.052;15.458;2022-09-01T06:28:43;97619.09;;;15.72;100.00
10470;BME280;5282;47.052;15.458;2022-09-01T06:31:10;97614.53;;;15.73;100.00
10470;BME280;5282;47.052;15.458;2022-09-01T06:33:38;97626.47;;;15.79;100.00
10470;BME280;5282;47.052;15.458;2022-09-01T06:36:06;97616.94;;;15.89;100.00
10470;BME280;5282;47.052;15.458;2022-09-01T06:38:35;97625.38;;;15.73;100.00
10470;BME280;5282;47.052;15.458;2022-09-01T06:41:05;97622.84;;;15.93;100.00
10470;BME280;5282;47.052;15.458;2022-09-01T06:43:39;97619.78;;;15.81;100.00
10470;BME280;5282;47.052;15.458;2022-09-01T06:46:07;97622.59;;;15.88;100.00
10470;BME280;5282;47.052;15.458;2022-09-01T06:48:35;97618.06;;;16.02;100.00
10470;BME280;5282;47.052;15.458;2022-09-01T06:51:05;97614.81;;;16.20;100.00
10470;BME280;5282;47.052;15.458;2022-09-01T06:53:35;97618.41;;;16.27;100.00
10470;BME280;5282;47.052;15.458;2022-09-01T06:56:02;97624.31;;;16.38;100.00
10470;BME280;5282;47.052;15.458;2022-09-01T06:58:29;97622.19;;;16.40;100.00
10470;BME280;5282;47.052;15.458;2022-09-01T07:00:57;97634.34;;;16.44;100.00
10470;BME280;5282;47.052;15.458;2022-09-01T07:03:25;97631.78;;;16.29;100.00
10470;BME280;5282;47.052;15.458;2022-09-01T07:05:52;97635.22;;;16.44;100.00
10470;BME280;5282;47.052;15.458;2022-09-01T07:08:21;97643.84;;;16.61;100.00
10470;BME280;5282;47.052;15.458;2022-09-01T07:10:50;97636.28;;;16.63;100.00
10470;BME280;5282;47.052;15.458;2022-09-01T07:13:20;97648.78;;;16.51;100.00
10470;BME280;5282;47.052;15.458;2022-09-01T07:15:50;97648.44;;;16.68;100.00
10470;BME280;5282;47.052;15.458;2022-09-01T07:18:19;97651.84;;;16.83;100.00
10470;BME280;5282;47.052;15.458;2022-09-01T07:20:47;97656.47;;;16.89;100.00
10470;BME280;5282;47.052;15.458;2022-09-01T07:23:16;97652.06;;;16.88;100.00
10470;BME280;5282;47.052;15.458;2022-09-01T07:25:47;97653.16;;;17.01;100.00
10470;BME280;5282;47.052;15.458;2022-09-01T07:28:20;97655.69;;;17.02;100.00
10470;BME280;5282;47.052;15.458;2022-09-01T07:30:50;97659.47;;;17.08;100.00
10470;BME280;5282;47.052;15.458;2022-09-01T07:33:19;97655.00;;;16.93;100.00
10470;BME280;5282;47.052;15.458;2022-09-01T07:35:50;97651.09;;;17.03;100.00
10470;BME280;5282;47.052;15.458;2022-09-01T07:38:17;97653.81;;;17.03;100.00
10470;BME280;5282;47.052;15.458;2022-09-01T07:40:44;97657.78;;;17.20;100.00
10470;BME280;5282;47.052;15.458;2022-09-01T07:43:15;97653.00;;;17.22;100.00
10470;BME280;5282;47.052;15.458;2022-09-01T07:45:47;97651.53;;;17.13;100.00
10470;BME280;5282;47.052;15.458;2022-09-01T07:48:17;97658.69;;;17.41;100.00
10470;BME280;5282;47.052;15.458;2022-09-01T07:50:46;97657.41;;;17.50;100.00
10470;BME280;5282;47.052;15.458;2022-09-01T07:53:14;97658.66;;;17.54;100.00
10470;BME280;5282;47.052;15.458;2022-09-01T07:55:43;97650.94;;;17.65;100.00
10470;BME280;5282;47.052;15.458;2022-09-01T07:58:09;97652.38;;;17.61;100.00
10470;BME280;5282;47.052;15.458;2022-09-01T08:00:37;97657.41;;;17.57;100.00
10470;BME280;5282;47.052;15.458;2022-09-01T08:03:08;97654.06;;;17.68;100.00
10470;BME280;5282;47.052;15.458;2022-09-01T08:05:35;97658.47;;;17.76;100.00
10470;BME280;5282;47.052;15.458;2022-09-01T08:08:03;97654.06;;;17.88;100.00
10470;BME280;5282;47.052;15.458;2022-09-01T08:10:30;97659.50;;;17.75;100.00
10470;BME280;5282;47.052;15.458;2022-09-01T08:12:57;97665.59;;;17.70;100.00
10470;BME280;5282;47.052;15.458;2022-09-01T08:15:24;97656.34;;;17.78;100.00
10470;BME280;5282;47.052;15.458;2022-09-01T08:17:51;97661.19;;;17.83;100.00
10470;BME280;5282;47.052;15.458;2022-09-01T08:20:20;97657.38;;;17.84;100.00
10470;BME280;5282;47.052;15.458;2022-09-01T08:22:46;97654.06;;;17.88;100.00
10470;BME280;5282;47.052;15.458;2022-09-01T08:25:13;97663.25;;;18.01;100.00
10470;BME280;5282;47.052;15.458;2022-09-01T08:27:41;97663.25;;;18.01;100.00
10470;BME280;5282;47.052;15.458;2022-09-01T08:30:12;97665.16;;;17.80;100.00
10470;BME280;5282;47.052;15.458;2022-09-01T08:32:39;97672.50;;;17.60;100.00
10470;BME280;5282;47.052;15.458;2022-09-01T08:35:08;97670.41;;;17.55;100.00
10470;BME280;5282;47.052;15.458;2022-09-01T08:37:37;97670.41;;;17.62;97.45
10470;BME280;5282;47.052;15.458;2022-09-01T08:40:06;97669.97;;;17.98;100.00
10470;BME280;5282;47.052;15.458;2022-09-01T08:42:46;97668.69;;;18.21;100.00
10470;BME280;5282;47.052;15.458;2022-09-01T08:45:21;97672.41;;;18.40;100.00
10470;BME280;5282;47.052;15.458;2022-09-01T08:47:51;97673.44;;;18.39;100.00
10470;BME280;5282;47.052;15.458;2022-09-01T08:50:20;97669.44;;;18.42;98.98
10470;BME280;5282;47.052;15.458;2022-09-01T08:52:50;97667.31;;;18.50;95.88
10470;BME280;5282;47.052;15.458;2022-09-01T08:55:26;97667.41;;;18.83;98.31
10470;BME280;5282;47.052;15.458;2022-09-01T08:57:55;97666.66;;;19.07;100.00
10470;BME280;5282;47.052;15.458;2022-09-01T09:00:24;97659.19;;;19.28;100.00
10470;BME280;5282;47.052;15.458;2022-09-01T09:03:06;97657.81;;;19.12;87.52
10470;BME280;5282;47.052;15.458;2022-09-01T09:05:45;97653.81;;;19.47;88.05
10470;BME280;5282;47.052;15.458;2022-09-01T09:08:27;97652.19;;;19.39;81.35
10470;BME280;5282;47.052;15.458;2022-09-01T09:10:59;97648.75;;;19.50;88.43
10470;BME280;5282;47.052;15.458;2022-09-01T09:13:38;97649.41;;;19.46;90.52
10470;BME280;5282;47.052;15.458;2022-09-01T09:16:11;97640.72;;;19.55;86.02
10470;BME280;5282;47.052;15.458;2022-09-01T09:18:43;97648.66;;;20.08;85.63
10470;BME280;5282;47.052;15.458;2022-09-01T09:21:17;97644.59;;;20.17;82.18
10470;BME280;5282;47.052;15.458;2022-09-01T09:23:49;97636.06;;;20.44;82.64
10470;BME280;5282;47.052;15.458;2022-09-01T09:26:20;97641.16;;;20.59;83.31
10470;BME280;5282;47.052;15.458;2022-09-01T09:28:47;97642.91;;;20.53;78.37
10470;BME280;5282;47.052;15.458;2022-09-01T09:31:29;97647.84;;;20.82;77.79
10470;BME280;5282;47.052;15.458;2022-09-01T09:33:58;97645.47;;;20.66;76.47
10470;BME280;5282;47.052;15.458;2022-09-01T09:36:30;97645.50;;;20.97;81.08
10470;BME280;5282;47.052;15.458;2022-09-01T09:39:08;97645.78;;;20.58;65.03
10470;BME280;5282;47.052;15.458;2022-09-01T09:41:37;97642.81;;;20.78;65.14
10470;BME280;5282;47.052;15.458;2022-09-01T09:44:15;97636.50;;;21.08;60.98
10470;BME280;5282;47.052;15.458;2022-09-01T09:46:46;97638.38;;;20.28;62.75
10470;BME280;5282;47.052;15.458;2022-09-01T09:49:18;97631.50;;;20.19;68.38
10470;BME280;5282;47.052;15.458;2022-09-01T09:51:49;97636.06;;;20.81;75.83
10470;BME280;5282;47.052;15.458;2022-09-01T09:54:21;97626.50;;;21.02;69.71
10470;BME280;5282;47.052;15.458;2022-09-01T09:57:03;97634.81;;;21.38;69.56
10470;BME280;5282;47.052;15.458;2022-09-01T09:59:33;97618.16;;;21.51;75.24
10470;BME280;5282;47.052;15.458;2022-09-01T10:02:15;97621.97;;;21.50;68.75
10470;BME280;5282;47.052;15.458;2022-09-01T10:04:47;97621.00;;;21.33;73.13
10470;BME280;5282;47.052;15.458;2022-09-01T10:07:27;97619.78;;;20.68;73.53
10470;BME280;5282;47.052;15.458;2022-09-01T10:09:58;97620.59;;;20.38;75.96
10470;BME280;5282;47.052;15.458;2022-09-01T10:12:26;97610.38;;;20.63;74.64
10470;BME280;5282;47.052;15.458;2022-09-01T10:14:58;97616.22;;;20.67;78.55
10470;BME280;5282;47.052;15.458;2022-09-01T10:17:29;97611.44;;;20.44;79.02
10470;BME280;5282;47.052;15.458;2022-09-01T10:20:02;97605.19;;;20.74;80.25
10470;BME280;5282;47.052;15.458;2022-09-01T10:22:32;97604.19;;;21.29;78.73
10470;BME280;5282;47.052;15.458;2022-09-01T10:25:02;97609.13;;;21.98;78.51
10470;BME280;5282;47.052;15.458;2022-09-01T10:27:34;97608.00;;;22.59;72.34
10470;BME280;5282;47.052;15.458;2022-09-01T10:30:05;97611.63;;;22.76;68.66
10470;BME280;5282;47.052;15.458;2022-09-01T10:32:38;97607.00;;;22.12;68.30
10470;BME280;5282;47.052;15.458;2022-09-01T10:35:11;97613.59;;;22.40;66.79
10470;BME280;5282;47.052;15.458;2022-09-01T10:37:41;97611.97;;;21.44;69.55
10470;BME280;5282;47.052;15.458;2022-09-01T10:40:18;97616.78;;;21.18;71.00
10470;BME280;5282;47.052;15.458;2022-09-01T10:42:48;97609.66;;;21.29;74.33
10470;BME280;5282;47.052;15.458;2022-09-01T10:45:29;97607.88;;;21.35;79.79
10470;BME280;5282;47.052;15.458;2022-09-01T10:48:21;97606.28;;;22.05;77.78
10470;BME280;5282;47.052;15.458;2022-09-01T10:50:51;97606.13;;;22.24;67.08
10470;BME280;5282;47.052;15.458;2022-09-01T10:53:36;97610.41;;;22.43;65.26
10470;BME280;5282;47.052;15.458;2022-09-01T10:56:08;97615.34;;;21.94;66.99
10470;BME280;5282;47.052;15.458;2022-09-01T10:58:47;97611.72;;;22.29;69.51
10470;BME280;5282;47.052;15.458;2022-09-01T11:01:15;97613.19;;;21.96;72.35
10470;BME280;5282;47.052;15.458;2022-09-01T11:03:53;97616.38;;;22.28;76.68
10470;BME280;5282;47.052;15.458;2022-09-01T11:09:25;97616.03;;;21.53;79.40
10470;BME280;5282;47.052;15.458;2022-09-01T11:12:10;97625.19;;;21.05;86.13
10470;BME280;5282;47.052;15.458;2022-09-01T11:14:48;97622.88;;;21.20;87.11
10470;BME280;5282;47.052;15.458;2022-09-01T11:17:20;97624.44;;;21.28;94.05
10470;BME280;5282;47.052;15.458;2022-09-01T11:19:57;97630.94;;;21.15;94.23
10470;BME280;5282;47.052;15.458;2022-09-01T11:22:31;97626.72;;;20.70;87.28
10470;BME280;5282;47.052;15.458;2022-09-01T11:25:36;97625.47;;;20.85;90.93
10470;BME280;5282;47.052;15.458;2022-09-01T11:28:08;97621.00;;;20.72;90.60
10470;BME280;5282;47.052;15.458;2022-09-01T11:30:41;97625.75;;;20.95;88.65
10470;BME280;5282;47.052;15.458;2022-09-01T11:33:30;97617.63;;;20.88;89.56
10470;BME280;5282;47.052;15.458;2022-09-01T11:36:01;97620.75;;;20.73;90.98
10470;BME280;5282;47.052;15.458;2022-09-01T11:38:37;97617.19;;;20.73;91.95
10470;BME280;5282;47.052;15.458;2022-09-01T11:41:08;97620.72;;;20.61;91.12
10470;BME280;5282;47.052;15.458;2022-09-01T11:43:36;97628.31;;;20.59;91.28
10470;BME280;5282;47.052;15.458;2022-09-01T11:46:08;97621.50;;;20.50;90.87
10470;BME280;5282;47.052;15.458;2022-09-01T11:48:44;97624.38;;;20.37;91.20
10470;BME280;5282;47.052;15.458;2022-09-01T11:51:11;97621.81;;;20.04;91.54
10470;BME280;5282;47.052;15.458;2022-09-01T11:53:38;97624.84;;;20.15;95.45
10470;BME280;5282;47.052;15.458;2022-09-01T11:56:14;97622.03;;;20.22;91.17
10470;BME280;5282;47.052;15.458;2022-09-01T11:58:42;97625.50;;;20.29;92.23
10470;BME280;5282;47.052;15.458;2022-09-01T12:01:16;97623.63;;;20.29;95.17
10470;BME280;5282;47.052;15.458;2022-09-01T12:03:44;97617.47;;;20.34;96.01
10470;BME280;5282;47.052;15.458;2022-09-01T12:06:18;97622.25;;;20.39;90.63
10470;BME280;5282;47.052;15.458;2022-09-01T12:08:53;97625.97;;;20.44;89.19
10470;BME280;5282;47.052;15.458;2022-09-01T12:11:23;97622.63;;;20.42;85.54
10470;BME280;5282;47.052;15.458;2022-09-01T12:13:58;97620.09;;;20.59;85.24
10470;BME280;5282;47.052;15.458;2022-09-01T12:16:27;97617.88;;;20.87;86.31
10470;BME280;5282;47.052;15.458;2022-09-01T12:18:56;97623.34;;;21.17;78.33
10470;BME280;5282;47.052;15.458;2022-09-01T12:21:27;97620.75;;;21.22;72.51
10470;BME280;5282;47.052;15.458;2022-09-01T12:24:11;97621.91;;;21.26;76.38
10470;BME280;5282;47.052;15.458;2022-09-01T12:26:40;97628.34;;;21.20;77.14
10470;BME280;5282;47.052;15.458;2022-09-01T12:29:09;97623.06;;;21.07;83.41
10470;BME280;5282;47.052;15.458;2022-09-01T12:31:39;97623.94;;;20.89;79.45
10470;BME280;5282;47.052;15.458;2022-09-01T12:34:23;97626.53;;;20.84;79.97
10470;BME280;5282;47.052;15.458;2022-09-01T12:37:03;97620.25;;;20.64;83.02
10470;BME280;5282;47.052;15.458;2022-09-01T12:39:32;97617.03;;;20.68;84.41
10470;BME280;5282;47.052;15.458;2022-09-01T12:42:02;97618.81;;;20.62;86.09
10470;BME280;5282;47.052;15.458;2022-09-01T12:44:33;97619.81;;;20.49;84.26
10470;BME280;5282;47.052;15.458;2022-09-01T12:47:10;97621.03;;;20.34;87.06
10470;BME280;5282;47.052;15.458;2022-09-01T12:49:40;97615.34;;;20.17;88.58
10470;BME280;5282;47.052;15.458;2022-09-01T12:52:13;97622.69;;;19.98;82.02
10470;BME280;5282;47.052;15.458;2022-09-01T12:54:44;97618.75;;;20.13;84.22
10470;BME280;5282;47.052;15.458;2022-09-01T12:57:25;97620.19;;;19.97;84.28
10470;BME280;5282;47.052;15.458;2022-09-01T13:00:13;97618.53;;;19.96;81.66
10470;BME280;5282;47.052;15.458;2022-09-01T13:02:47;97618.25;;;19.79;79.21
10470;BME280;5282;47.052;15.458;2022-09-01T13:05:23;97623.25;;;19.82;79.86
10470;BME280;5282;47.052;15.458;2022-09-01T13:07:52;97615.78;;;19.96;83.20
10470;BME280;5282;47.052;15.458;2022-09-01T13:10:23;97620.44;;;19.95;81.16
10470;BME280;5282;47.052;15.458;2022-09-01T13:12:53;97622.31;;;19.95;83.77
10470;BME280;5282;47.052;15.458;2022-09-01T13:15:24;97618.00;;;20.06;82.21
10470;BME280;5282;47.052;15.458;2022-09-01T13:17:51;97625.28;;;20.12;87.58
10470;BME280;5282;47.052;15.458;2022-09-01T13:20:18;97628.69;;;20.07;82.64
10470;BME280;5282;47.052;15.458;2022-09-01T13:22:46;97627.72;;;20.01;75.51
10470;BME280;5282;47.052;15.458;2022-09-01T13:25:14;97626.59;;;20.09;79.89